createdAt,value
2018-06-17T00:00:34.811Z,41.60
2018-06-17T00:03:07.064Z,33.37
2018-06-17T00:05:39.219Z,26.00
2018-06-17T00:08:11.432Z,18.13
2018-06-17T00:10:43.563Z,15.63
2018-06-17T00:13:15.633Z,9.80
2018-06-17T00:15:47.713Z,9.33
2018-06-17T00:18:19.797Z,9.47
2018-06-17T00:20:52.618Z,9.10
2018-06-17T00:23:25.080Z,9.60
2018-06-17T00:25:57.136Z,10.50
2018-06-17T00:28:29.324Z,10.40
2018-06-17T00:31:01.844Z,10.83
2018-06-17T00:33:33.941Z,10.00
2018-06-17T00:36:06.130Z,10.90
2018-06-17T00:38:38.286Z,9.10
2018-06-17T00:41:10.390Z,9.13
2018-06-17T00:43:42.604Z,9.50
2018-06-17T00:46:14.731Z,10.17
2018-06-17T00:48:46.824Z,9.40
2018-06-17T00:51:19.000Z,9.17
2018-06-17T00:53:51.587Z,9.30
2018-06-17T00:56:23.736Z,9.60
2018-06-17T00:58:55.827Z,9.13
2018-06-17T01:01:28.121Z,10.50
2018-06-17T01:04:00.226Z,10.47
2018-06-17T01:06:32.299Z,10.00
2018-06-17T01:09:05.877Z,9.80
2018-06-17T01:11:38.670Z,10.30
2018-06-17T01:14:11.778Z,9.17
2018-06-17T01:16:43.869Z,9.80
2018-06-17T01:19:16.013Z,9.70
2018-06-17T01:21:48.330Z,10.27
2018-06-17T01:24:20.635Z,9.70
2018-06-17T01:26:53.091Z,9.87
2018-06-17T01:29:25.369Z,9.80
2018-06-17T01:31:57.479Z,10.33
2018-06-17T01:34:29.796Z,9.67
2018-06-17T01:37:02.017Z,10.50
2018-06-17T01:39:34.178Z,10.03
2018-06-17T01:42:06.532Z,10.33
2018-06-17T01:44:38.653Z,9.15
2018-06-17T01:47:10.714Z,9.95
2018-06-17T01:49:42.968Z,10.43
2018-06-17T01:52:15.065Z,11.40
2018-06-17T01:54:47.423Z,10.50
2018-06-17T01:57:19.541Z,10.25
2018-06-17T01:59:52.909Z,10.75
2018-06-17T02:02:24.984Z,11.37
2018-06-17T02:05:02.871Z,11.03
2018-06-17T02:07:40.666Z,10.00
2018-06-17T02:10:18.644Z,10.00
2018-06-17T02:12:50.824Z,9.95
2018-06-17T02:15:22.877Z,9.80
2018-06-17T02:17:54.956Z,10.90
2018-06-17T02:20:27.116Z,10.93
2018-06-17T02:22:59.241Z,10.20
2018-06-17T02:25:31.277Z,10.53
2018-06-17T02:28:03.974Z,9.77
2018-06-17T02:30:36.042Z,10.97
2018-06-17T02:33:08.101Z,9.83
2018-06-17T02:35:40.157Z,10.70
2018-06-17T02:38:12.246Z,9.80
2018-06-17T02:40:44.299Z,10.32
2018-06-17T02:43:16.391Z,9.18
2018-06-17T02:45:54.134Z,9.38
2018-06-17T02:48:31.945Z,10.13
2018-06-17T02:51:09.708Z,9.48
2018-06-17T02:53:47.392Z,11.40
2018-06-17T02:56:19.439Z,9.60
2018-06-17T02:58:51.477Z,9.80
2018-06-17T03:01:23.509Z,10.00
2018-06-17T03:03:55.655Z,9.85
2018-06-17T03:06:27.627Z,9.80
2018-06-17T03:08:59.694Z,9.50
2018-06-17T03:11:31.719Z,9.55
2018-06-17T03:14:04.034Z,9.85
2018-06-17T03:16:36.521Z,9.25
2018-06-17T03:19:08.590Z,9.33
2018-06-17T03:21:40.668Z,9.45
2018-06-17T03:24:12.888Z,9.15
2018-06-17T03:26:50.676Z,9.00
2018-06-17T03:29:28.284Z,9.40
2018-06-17T03:32:05.947Z,9.20
2018-06-17T03:34:38.008Z,8.58
2018-06-17T03:37:10.156Z,9.65
2018-06-17T03:39:42.228Z,9.37
2018-06-17T03:42:14.324Z,8.47
2018-06-17T03:44:46.383Z,8.80
2018-06-17T03:47:18.420Z,8.87
2018-06-17T03:49:50.489Z,8.37
2018-06-17T03:52:22.580Z,8.67
2018-06-17T03:54:54.628Z,8.60
2018-06-17T03:57:26.672Z,8.23
2018-06-17T03:59:58.728Z,8.13
2018-06-17T04:02:33.397Z,8.97
2018-06-17T04:05:11.211Z,8.40
2018-06-17T04:07:43.276Z,8.70
2018-06-17T04:10:15.557Z,8.10
2018-06-17T04:12:47.563Z,8.40
2018-06-17T04:15:19.884Z,9.57
2018-06-17T04:17:51.931Z,8.97
2018-06-17T04:20:23.995Z,8.90
2018-06-17T04:22:56.057Z,7.83
2018-06-17T04:25:28.084Z,8.70
2018-06-17T04:28:00.156Z,8.20
2018-06-17T04:30:32.198Z,8.20
2018-06-17T04:33:04.319Z,9.53
2018-06-17T04:35:36.456Z,8.60
2018-06-17T04:38:08.505Z,8.00
2018-06-17T04:40:40.543Z,8.30
2018-06-17T04:43:12.624Z,8.40
2018-06-17T04:45:44.679Z,8.13
2018-06-17T04:48:17.059Z,8.73
2018-06-17T04:50:49.136Z,8.03
2018-06-17T04:53:21.170Z,9.03
2018-06-17T04:55:53.248Z,8.80
2018-06-17T04:58:25.279Z,10.27
2018-06-17T05:00:57.316Z,9.70
2018-06-17T05:03:29.378Z,9.53
2018-06-17T05:06:01.443Z,9.60
2018-06-17T05:08:33.515Z,8.93
2018-06-17T05:11:05.569Z,9.20
2018-06-17T05:13:37.607Z,9.40
2018-06-17T05:16:09.686Z,8.23
2018-06-17T05:18:41.815Z,8.57
2018-06-17T05:21:13.849Z,9.80
2018-06-17T05:23:45.892Z,9.77
2018-06-17T05:26:17.931Z,10.30
2018-06-17T05:28:49.991Z,9.63
2018-06-17T05:31:21.985Z,9.23
2018-06-17T05:33:54.134Z,8.70
2018-06-17T05:36:26.147Z,9.30
2018-06-17T05:38:58.217Z,9.20
2018-06-17T05:41:30.258Z,9.00
2018-06-17T05:44:02.724Z,8.70
2018-06-17T05:46:35.434Z,9.33
2018-06-17T05:49:07.491Z,8.93
2018-06-17T05:51:39.559Z,8.53
2018-06-17T05:54:11.588Z,8.70
2018-06-17T05:56:43.640Z,8.53
2018-06-17T05:59:15.813Z,9.40
2018-06-17T06:01:47.886Z,9.33
2018-06-17T06:04:19.910Z,8.93
2018-06-17T06:06:51.943Z,8.57
2018-06-17T06:09:24.053Z,8.37
2018-06-17T06:11:56.113Z,9.00
2018-06-17T06:14:28.204Z,10.20
2018-06-17T06:17:00.236Z,9.17
2018-06-17T06:19:32.410Z,11.10
2018-06-17T06:22:04.460Z,9.40
2018-06-17T06:24:36.523Z,10.10
2018-06-17T06:27:08.631Z,9.63
2018-06-17T06:29:40.717Z,9.57
2018-06-17T06:32:12.755Z,10.03
2018-06-17T06:34:44.787Z,10.40
2018-06-17T06:37:16.956Z,10.27
2018-06-17T06:39:48.969Z,11.17
2018-06-17T06:42:21.062Z,10.50
2018-06-17T06:44:53.103Z,11.60
2018-06-17T06:47:25.191Z,12.23
2018-06-17T06:49:57.256Z,12.37
2018-06-17T06:52:29.326Z,11.50
2018-06-17T06:55:01.423Z,12.10
2018-06-17T06:57:33.568Z,11.60
2018-06-17T07:00:05.716Z,11.80
2018-06-17T07:02:49.467Z,10.70
2018-06-17T07:05:33.074Z,10.73
2018-06-17T07:09:17.274Z,10.43
2018-06-17T07:11:49.312Z,9.70
2018-06-17T07:14:21.620Z,19.53
2018-06-17T07:17:05.245Z,10.97
2018-06-17T07:19:37.341Z,12.70
2018-06-17T07:22:09.403Z,11.17
2018-06-17T07:24:41.431Z,9.60
2018-06-17T07:27:24.957Z,11.73
2018-06-17T07:29:57.154Z,11.30
2018-06-17T07:32:29.217Z,13.63
2018-06-17T07:35:01.413Z,13.40
2018-06-17T07:37:33.527Z,13.53
2018-06-17T07:41:10.063Z,10.87
2018-06-17T07:43:42.194Z,9.23
2018-06-17T07:46:14.165Z,8.90
2018-06-17T07:49:55.293Z,13.60
2018-06-17T07:59:45.553Z,9.47
2018-06-17T08:02:18.140Z,8.90
2018-06-17T08:04:50.270Z,8.97
2018-06-17T08:07:22.367Z,9.10
2018-06-17T08:09:54.399Z,8.23
2018-06-17T08:12:26.522Z,8.40
2018-06-17T08:14:58.623Z,8.43
2018-06-17T08:17:30.683Z,8.70
2018-06-17T08:20:02.880Z,8.53
2018-06-17T08:22:34.988Z,7.70
2018-06-17T08:25:07.050Z,7.77
2018-06-17T08:27:39.207Z,7.67
2018-06-17T08:30:11.252Z,7.13
2018-06-17T08:32:43.290Z,7.90
2018-06-17T08:35:15.356Z,7.70
2018-06-17T08:37:47.438Z,8.10
2018-06-17T08:40:19.515Z,7.10
2018-06-17T08:42:51.575Z,7.60
2018-06-17T08:45:23.642Z,7.27
2018-06-17T08:47:55.727Z,6.83
2018-06-17T08:50:27.747Z,6.53
2018-06-17T08:52:59.831Z,7.03
2018-06-17T08:55:31.898Z,6.90
2018-06-17T08:58:04.010Z,7.40
2018-06-17T09:00:36.085Z,7.00
2018-06-17T09:03:08.179Z,6.83
2018-06-17T09:05:40.250Z,8.40
2018-06-17T09:08:12.343Z,7.10
2018-06-17T09:10:44.439Z,7.13
2018-06-17T09:13:16.502Z,7.80
2018-06-17T09:15:48.543Z,7.43
2018-06-17T09:18:20.589Z,7.90
2018-06-17T09:20:52.751Z,7.37
2018-06-17T09:23:24.924Z,7.80
2018-06-17T09:25:57.032Z,8.07
2018-06-17T09:28:29.139Z,7.17
2018-06-17T09:31:01.168Z,7.43
2018-06-17T09:33:33.312Z,8.13
2018-06-17T09:36:05.406Z,7.63
2018-06-17T09:38:37.475Z,7.70
2018-06-17T09:41:09.538Z,8.03
2018-06-17T09:43:41.714Z,7.77
2018-06-17T09:46:13.757Z,7.33
2018-06-17T09:48:45.804Z,7.90
2018-06-17T09:51:17.968Z,8.10
2018-06-17T09:53:50.057Z,7.90
2018-06-17T09:56:22.103Z,8.00
2018-06-17T09:58:54.131Z,8.40
2018-06-17T10:01:26.219Z,8.27
2018-06-17T10:03:58.255Z,7.77
2018-06-17T10:06:30.295Z,7.80
2018-06-17T10:09:02.494Z,8.23
2018-06-17T10:11:35.621Z,7.83
2018-06-17T10:14:07.690Z,8.73
2018-06-17T10:16:39.739Z,9.43
2018-06-17T10:19:11.803Z,8.03
2018-06-17T10:21:43.856Z,7.80
2018-06-17T10:24:15.883Z,8.07
2018-06-17T10:26:47.948Z,9.03
2018-06-17T10:29:20.051Z,8.63
2018-06-17T10:31:52.063Z,9.30
2018-06-17T10:34:24.124Z,8.83
2018-06-17T10:36:56.208Z,8.03
2018-06-17T10:39:28.284Z,8.53
2018-06-17T10:42:00.342Z,8.63
2018-06-17T10:44:32.383Z,8.50
2018-06-17T10:47:04.738Z,7.77
2018-06-17T10:49:36.770Z,7.97
2018-06-17T10:52:08.817Z,7.20
2018-06-17T10:54:40.921Z,8.03
2018-06-17T10:57:12.954Z,8.47
2018-06-17T10:59:44.999Z,8.20
2018-06-17T11:02:17.092Z,7.60
2018-06-17T11:04:49.143Z,8.57
2018-06-17T11:07:21.183Z,8.20
2018-06-17T11:09:53.221Z,7.43
2018-06-17T11:12:25.319Z,7.77
2018-06-17T11:14:57.392Z,7.83
2018-06-17T11:17:29.435Z,7.80
2018-06-17T11:20:01.542Z,7.63
2018-06-17T11:22:33.636Z,7.47
2018-06-17T11:25:05.843Z,7.30
2018-06-17T11:27:37.882Z,7.03
2018-06-17T11:30:09.943Z,8.17
2018-06-17T11:32:41.939Z,7.50
2018-06-17T11:35:14.015Z,7.97
2018-06-17T11:37:46.064Z,7.83
2018-06-17T11:40:18.105Z,7.10
2018-06-17T11:42:50.156Z,7.00
2018-06-17T11:45:22.207Z,7.63
2018-06-17T11:47:54.271Z,7.67
2018-06-17T11:50:26.356Z,7.27
2018-06-17T11:52:58.427Z,6.87
2018-06-17T11:55:30.489Z,6.47
2018-06-17T11:58:02.575Z,5.97
2018-06-17T12:00:34.632Z,6.50
2018-06-17T12:03:06.681Z,6.90
2018-06-17T12:05:38.746Z,6.10
2018-06-17T12:08:10.863Z,7.40
2018-06-17T12:10:42.971Z,6.33
2018-06-17T12:13:15.047Z,6.33
2018-06-17T12:15:47.129Z,5.80
2018-06-17T12:18:19.300Z,6.43
2018-06-17T12:20:51.398Z,6.30
2018-06-17T12:23:23.434Z,6.10
2018-06-17T12:25:55.460Z,6.20
2018-06-17T12:28:27.519Z,6.03
2018-06-17T12:30:59.646Z,6.30
2018-06-17T12:33:31.855Z,6.07
2018-06-17T12:36:05.251Z,5.40
2018-06-17T12:38:37.346Z,5.40
2018-06-17T12:41:09.501Z,5.43
2018-06-17T12:43:41.590Z,5.43
2018-06-17T12:46:13.700Z,5.50
2018-06-17T12:48:45.738Z,5.17
2018-06-17T12:51:17.791Z,4.97
2018-06-17T12:53:49.870Z,4.63
2018-06-17T12:56:21.995Z,4.80
2018-06-17T12:58:54.133Z,5.13
2018-06-17T13:01:26.192Z,4.80
2018-06-17T13:03:58.325Z,5.10
2018-06-17T13:06:30.371Z,4.40
2018-06-17T13:09:03.631Z,4.90
2018-06-17T13:11:35.709Z,5.33
2018-06-17T13:14:08.199Z,5.13
2018-06-17T13:16:40.259Z,5.00
2018-06-17T13:19:12.366Z,5.00
2018-06-17T13:21:44.427Z,4.27
2018-06-17T13:24:16.439Z,4.53
2018-06-17T13:26:48.496Z,4.80
2018-06-17T13:29:20.520Z,5.00
2018-06-17T13:31:52.607Z,4.47
2018-06-17T13:34:24.627Z,4.60
2018-06-17T13:36:56.691Z,6.17
2018-06-17T13:39:28.748Z,6.20
2018-06-17T13:42:00.816Z,6.93
2018-06-17T13:44:32.876Z,6.37
2018-06-17T13:47:04.992Z,6.23
2018-06-17T13:49:37.229Z,5.70
2018-06-17T13:52:09.315Z,5.60
2018-06-17T13:54:41.414Z,5.60
2018-06-17T13:57:13.455Z,5.70
2018-06-17T13:59:45.547Z,5.07
2018-06-17T14:02:17.650Z,5.13
2018-06-17T14:04:49.745Z,4.60
2018-06-17T14:07:21.800Z,4.20
2018-06-17T14:09:53.861Z,4.60
2018-06-17T14:12:26.052Z,3.80
2018-06-17T14:14:58.119Z,4.37
2018-06-17T14:17:30.215Z,4.37
2018-06-17T14:20:02.562Z,4.50
2018-06-17T14:22:34.664Z,4.40
2018-06-17T14:25:06.757Z,4.30
2018-06-17T14:27:38.803Z,4.47
2018-06-17T14:30:10.828Z,4.53
2018-06-17T14:32:42.892Z,4.60
2018-06-17T14:35:15.194Z,4.80
2018-06-17T14:37:47.280Z,4.90
2018-06-17T14:40:19.408Z,4.40
2018-06-17T14:42:57.310Z,4.57
2018-06-17T14:45:35.931Z,4.47
2018-06-17T14:48:13.790Z,4.80
2018-06-17T14:50:51.462Z,5.10
2018-06-17T14:53:23.549Z,4.07
2018-06-17T14:55:55.610Z,3.97
2018-06-17T14:58:27.657Z,4.07
2018-06-17T15:00:59.704Z,4.23
2018-06-17T15:03:31.836Z,3.53
2018-06-17T15:06:04.291Z,4.07
2018-06-17T15:08:36.351Z,3.50
2018-06-17T15:11:08.407Z,3.60
2018-06-17T15:13:40.479Z,3.13
2018-06-17T15:16:12.480Z,3.00
2018-06-17T15:18:44.507Z,2.60
2018-06-17T15:21:16.520Z,2.60
2018-06-17T15:23:48.562Z,2.90
2018-06-17T15:26:20.750Z,2.63
2018-06-17T15:28:52.936Z,2.30
2018-06-17T15:31:30.765Z,2.27
2018-06-17T15:34:08.405Z,2.03
2018-06-17T15:36:45.967Z,2.13
2018-06-17T15:39:23.604Z,2.20
2018-06-17T15:41:55.642Z,2.00
2018-06-17T15:44:27.724Z,2.00
2018-06-17T15:46:59.759Z,2.00
2018-06-17T15:49:31.802Z,2.43
2018-06-17T15:52:03.845Z,2.00
2018-06-17T15:54:35.870Z,2.40
2018-06-17T15:57:07.980Z,2.30
2018-06-17T15:59:40.011Z,2.43
2018-06-17T16:02:12.109Z,2.40
2018-06-17T16:04:44.150Z,2.50
2018-06-17T16:07:16.188Z,2.33
2018-06-17T16:09:48.216Z,2.63
2018-06-17T16:12:25.854Z,2.77
2018-06-17T16:15:03.532Z,2.70
2018-06-17T16:17:41.239Z,2.70
2018-06-17T16:20:18.952Z,3.00
2018-06-17T16:22:51.012Z,2.90
2018-06-17T16:25:24.180Z,2.90
2018-06-17T16:27:56.270Z,2.53
2018-06-17T16:30:28.357Z,2.60
2018-06-17T16:33:00.400Z,3.00
2018-06-17T16:35:32.726Z,2.67
2018-06-17T16:38:04.763Z,3.20
2018-06-17T16:40:36.856Z,3.30
2018-06-17T16:43:08.936Z,3.33
2018-06-17T16:45:40.987Z,3.20
2018-06-17T16:48:13.297Z,3.37
2018-06-17T16:51:50.660Z,3.07
2018-06-17T16:54:28.527Z,3.03
2018-06-17T16:57:06.201Z,3.57
2018-06-17T16:59:43.945Z,3.20
2018-06-17T17:02:16.180Z,3.30
2018-06-17T17:04:48.309Z,3.57
2018-06-17T17:07:20.517Z,2.97
2018-06-17T17:09:52.667Z,3.80
2018-06-17T17:12:24.764Z,3.57
2018-06-17T17:14:56.867Z,3.00
2018-06-17T17:17:28.963Z,3.33
2018-06-17T17:20:01.062Z,3.30
2018-06-17T17:22:33.787Z,3.23
2018-06-17T17:25:05.918Z,3.23
2018-06-17T17:27:37.996Z,3.13
2018-06-17T17:30:10.328Z,3.63
2018-06-17T17:32:48.119Z,2.90
2018-06-17T17:35:25.971Z,2.67
2018-06-17T17:38:03.836Z,3.10
2018-06-17T17:40:39.803Z,3.00
2018-06-17T17:43:11.893Z,3.33
2018-06-17T17:45:49.557Z,2.70
2018-06-17T17:48:21.744Z,3.13
2018-06-17T17:50:53.924Z,2.50
2018-06-17T17:53:26.067Z,2.60
2018-06-17T17:55:58.165Z,2.90
2018-06-17T17:58:30.275Z,3.50
2018-06-17T18:01:02.360Z,2.80
2018-06-17T18:03:34.453Z,2.90
2018-06-17T18:06:06.516Z,3.37
2018-06-17T18:08:38.555Z,3.20
2018-06-17T18:11:10.768Z,2.93
2018-06-17T18:13:43.801Z,3.40
2018-06-17T18:16:22.724Z,3.30
2018-06-17T18:18:54.773Z,3.90
2018-06-17T18:21:26.816Z,3.23
2018-06-17T18:23:58.892Z,3.10
2018-06-17T18:26:36.629Z,3.50
2018-06-17T18:29:14.359Z,3.10
2018-06-17T18:31:52.176Z,3.20
2018-06-17T18:34:29.826Z,2.93
2018-06-17T18:37:01.888Z,3.23
2018-06-17T18:39:33.936Z,3.10
2018-06-17T18:42:06.028Z,3.43
2018-06-17T18:44:38.260Z,3.23
2018-06-17T18:47:10.337Z,3.20
2018-06-17T18:49:42.400Z,2.83
2018-06-17T18:52:14.471Z,3.13
2018-06-17T18:54:46.567Z,2.33
2018-06-17T18:57:18.597Z,2.80
2018-06-17T18:59:50.667Z,3.03
2018-06-17T19:02:22.731Z,2.43
2018-06-17T19:04:54.824Z,2.80
2018-06-17T19:07:26.911Z,3.20
2018-06-17T19:10:04.608Z,3.40
2018-06-17T19:12:42.544Z,2.87
2018-06-17T19:15:20.294Z,3.23
2018-06-17T19:17:58.010Z,2.47
2018-06-17T19:20:30.048Z,3.00
2018-06-17T19:23:02.124Z,2.70
2018-06-17T19:25:34.178Z,3.20
2018-06-17T19:28:06.212Z,3.17
2018-06-17T19:30:38.283Z,4.63
2018-06-17T19:33:10.386Z,3.50
2018-06-17T19:35:42.473Z,3.20
2018-06-17T19:38:14.483Z,3.10
2018-06-17T19:40:46.772Z,3.17
2018-06-17T19:43:18.742Z,2.77
2018-06-17T19:45:50.796Z,2.70
2018-06-17T19:48:23.067Z,2.40
2018-06-17T19:51:00.736Z,2.87
2018-06-17T19:53:38.407Z,3.00
2018-06-17T19:56:16.160Z,2.70
2018-06-17T19:58:53.870Z,3.10
2018-06-17T20:01:25.991Z,3.20
2018-06-17T20:03:58.139Z,2.70
2018-06-17T20:06:30.321Z,2.80
2018-06-17T20:09:02.435Z,3.27
2018-06-17T20:11:34.957Z,3.20
2018-06-17T20:14:07.302Z,2.80
2018-06-17T20:16:39.379Z,2.63
2018-06-17T20:19:11.444Z,2.93
2018-06-17T20:21:43.592Z,2.90
2018-06-17T20:24:15.723Z,3.07
2018-06-17T20:26:47.794Z,3.00
2018-06-17T20:29:19.905Z,3.27
2018-06-17T20:31:57.555Z,3.13
2018-06-17T20:34:35.404Z,3.07
2018-06-17T20:37:13.093Z,2.53
2018-06-17T20:39:50.727Z,3.10
2018-06-17T20:42:28.391Z,3.20
2018-06-17T20:45:00.467Z,3.00
2018-06-17T20:47:32.550Z,3.00
2018-06-17T20:50:04.611Z,2.40
2018-06-17T20:52:37.490Z,2.63
2018-06-17T20:55:09.952Z,2.70
2018-06-17T20:57:42.295Z,3.10
2018-06-17T21:00:15.538Z,2.33
2018-06-17T21:02:47.697Z,5.73
2018-06-17T21:05:21.204Z,4.50
2018-06-17T21:07:53.506Z,3.00
2018-06-17T21:10:26.660Z,3.03
2018-06-17T21:12:59.872Z,3.00
2018-06-17T21:15:32.057Z,2.80
2018-06-17T21:18:04.577Z,2.63
2018-06-17T21:20:42.318Z,2.90
2018-06-17T21:23:20.120Z,2.83
2018-06-17T21:25:57.829Z,2.60
2018-06-17T21:28:29.917Z,2.90
2018-06-17T21:31:01.967Z,2.67
2018-06-17T21:33:35.203Z,2.50
2018-06-17T21:36:07.268Z,2.70
2018-06-17T21:38:39.362Z,2.30
2018-06-17T21:41:11.463Z,2.87
2018-06-17T21:43:44.335Z,2.80
2018-06-17T21:46:16.435Z,2.23
2018-06-17T21:48:48.519Z,2.50
2018-06-17T21:51:20.573Z,3.23
2018-06-17T21:53:52.780Z,3.50
2018-06-17T21:56:25.287Z,3.20
2018-06-17T21:58:59.096Z,4.40
2018-06-17T22:01:31.170Z,3.30
2018-06-17T22:04:09.888Z,2.53
2018-06-17T22:06:42.067Z,3.10
2018-06-17T22:09:20.035Z,2.50
2018-06-17T22:12:56.738Z,2.70
2018-06-17T22:15:36.173Z,2.50
2018-06-17T22:18:08.910Z,2.70
2018-06-17T22:20:40.975Z,2.67
2018-06-17T22:23:13.048Z,2.83
2018-06-17T22:25:47.205Z,2.60
2018-06-17T22:28:19.283Z,3.10
2018-06-17T22:30:51.435Z,2.67
2018-06-17T22:33:23.516Z,2.73
2018-06-17T22:35:55.612Z,2.70
2018-06-17T22:38:27.676Z,3.30
2018-06-17T22:40:59.733Z,2.90
2018-06-17T22:43:31.833Z,2.77
2018-06-17T22:46:03.978Z,2.83
2018-06-17T22:48:36.045Z,4.50
2018-06-17T22:51:08.157Z,2.67
2018-06-17T22:53:51.759Z,2.60
2018-06-17T22:56:29.483Z,3.20
2018-06-17T22:59:07.416Z,3.10
2018-06-17T23:01:45.156Z,2.90
2018-06-17T23:04:22.839Z,2.70
2018-06-17T23:07:00.603Z,3.07
2018-06-17T23:09:37.672Z,2.57
2018-06-17T23:12:09.772Z,2.87
2018-06-17T23:14:41.864Z,2.90
2018-06-17T23:17:14.009Z,2.77
2018-06-17T23:19:46.101Z,2.60
2018-06-17T23:22:18.265Z,2.77
2018-06-17T23:24:50.504Z,3.17
2018-06-17T23:27:22.745Z,2.87
2018-06-17T23:29:55.012Z,2.97
2018-06-17T23:32:27.195Z,2.63
2018-06-17T23:34:59.320Z,3.00
2018-06-17T23:37:31.423Z,3.10
2018-06-17T23:40:03.560Z,2.60
2018-06-17T23:42:35.733Z,3.00
2018-06-17T23:45:07.872Z,3.63
2018-06-17T23:47:45.455Z,3.13
2018-06-17T23:52:30.417Z,2.63
2018-06-17T23:55:08.075Z,3.10
2018-06-17T23:57:40.254Z,0.73
